Terminal Aerodrome Forecast
Issued by NWS

Current Version | Previous Version | Graphics & Text | Print | Product List | Glossary On
Versions: 1 2 3 4 5 6 7 8 9 10 11 12 13 14 15 16 17 18 19 20 21 22 23 24 25 26 27 28 29 30 31 32 33 34 35 36 37 38 39 40 41
000
FTUS41 KRNK 231731 AAA
TAFLWB
TAF AMD
KLWB 231731Z 2318/2418 22005KT P6SM BKN050
      TEMPO 2322/2324 4SM -SHRA OVC025
     FM240000 18004KT P6SM VCSH BKN080
     FM240300 20004KT 3SM BR VCSH BKN060
     FM241200 VRB03KT P6SM BKN015
     FM241500 22004KT P6SM OVC045=

USA.gov is the U.S. government's official web portal to all federal, state and local government web resources and services.